createdAt,value
2023-01-30T00:11:45.484Z,4.03
2023-01-30T00:15:27.283Z,7.28
2023-01-30T00:19:09.157Z,7.72
2023-01-30T00:35:18.655Z,4.97
2023-01-30T00:39:00.560Z,4.80
2023-01-30T00:43:00.651Z,4.65
2023-01-30T00:47:00.822Z,5.90
2023-01-30T00:50:42.657Z,8.35
2023-01-30T00:54:24.786Z,6.05
2023-01-30T00:58:06.833Z,5.78
2023-01-30T01:01:48.614Z,4.18
2023-01-30T01:05:30.684Z,3.60
2023-01-30T01:09:12.479Z,10.32
2023-01-30T01:12:54.282Z,5.95
2023-01-30T01:16:36.572Z,4.75
2023-01-30T01:20:19.258Z,3.55
2023-01-30T01:24:01.192Z,5.32
2023-01-30T01:27:42.974Z,4.82
2023-01-30T01:31:25.694Z,7.15
2023-01-30T01:35:07.886Z,6.72
2023-01-30T01:38:49.641Z,5.10
2023-01-30T01:42:35.845Z,4.85
2023-01-30T01:46:28.821Z,5.95
2023-01-30T01:50:26.697Z,7.35
2023-01-30T01:54:34.213Z,11.43
2023-01-30T01:58:22.508Z,9.15
2023-01-30T02:02:10.741Z,8.65
2023-01-30T02:05:57.756Z,13.18
2023-01-30T02:09:39.621Z,9.50
2023-01-30T02:13:21.847Z,9.15
2023-01-30T02:17:03.718Z,13.63
2023-01-30T02:21:06.838Z,11.77
2023-01-30T02:25:23.754Z,12.63
2023-01-30T02:29:23.707Z,11.98
2023-01-30T02:33:31.971Z,13.23
2023-01-30T02:37:25.732Z,17.45
2023-01-30T02:41:41.959Z,15.98
2023-01-30T02:45:43.332Z,12.93
2023-01-30T02:49:58.418Z,17.70
2023-01-30T02:53:40.805Z,16.63
2023-01-30T02:57:28.890Z,20.98
2023-01-30T03:01:50.363Z,15.65
2023-01-30T03:05:40.937Z,14.23
2023-01-30T03:09:35.715Z,14.38
2023-01-30T03:13:29.578Z,17.08
2023-01-30T03:17:12.937Z,23.02
2023-01-30T03:20:55.307Z,21.50
2023-01-30T03:28:37.001Z,16.10
2023-01-30T03:32:18.826Z,16.58
2023-01-30T03:36:00.684Z,19.25
2023-01-30T03:39:42.712Z,13.90
2023-01-30T03:43:24.573Z,14.60
2023-01-30T03:47:06.696Z,20.52
2023-01-30T03:50:49.239Z,15.65
2023-01-30T03:54:31.066Z,16.10
2023-01-30T03:58:12.954Z,13.85
2023-01-30T04:01:54.765Z,15.55
2023-01-30T04:05:36.759Z,17.55
2023-01-30T04:09:18.653Z,21.92
2023-01-30T04:13:00.528Z,19.73
2023-01-30T04:16:42.751Z,18.98
2023-01-30T04:20:25.111Z,17.85
2023-01-30T04:24:07.075Z,13.40
2023-01-30T04:27:48.942Z,17.92
2023-01-30T04:31:30.846Z,17.95
2023-01-30T04:35:12.941Z,18.15
2023-01-30T04:38:55.004Z,17.83
2023-01-30T04:42:36.860Z,15.50
2023-01-30T04:46:18.709Z,18.75
2023-01-30T04:50:00.748Z,22.15
2023-01-30T04:53:42.661Z,16.13
2023-01-30T04:57:24.559Z,13.43
2023-01-30T05:01:14.330Z,15.05
2023-01-30T05:04:56.200Z,19.67
2023-01-30T05:08:38.053Z,10.85
2023-01-30T05:12:19.921Z,13.07
2023-01-30T05:16:01.698Z,17.55
2023-01-30T05:19:43.515Z,10.90
2023-01-30T05:23:25.359Z,14.73
2023-01-30T05:27:07.210Z,10.77
2023-01-30T05:30:49.190Z,14.45
2023-01-30T05:34:31.556Z,18.13
2023-01-30T05:38:13.441Z,15.57
2023-01-30T05:41:55.537Z,14.27
2023-01-30T05:45:37.954Z,13.25
2023-01-30T05:49:19.933Z,16.48
2023-01-30T05:53:01.911Z,18.60
2023-01-30T05:56:43.868Z,17.08
2023-01-30T06:00:25.728Z,14.93
2023-01-30T06:04:07.595Z,16.98
2023-01-30T06:07:49.745Z,15.07
2023-01-30T06:11:32.013Z,19.15
2023-01-30T06:15:14.109Z,15.98
2023-01-30T06:18:55.934Z,16.23
2023-01-30T06:22:38.296Z,16.90
2023-01-30T06:26:20.281Z,12.90
2023-01-30T06:30:02.617Z,16.45
2023-01-30T06:33:44.493Z,10.07
2023-01-30T06:37:26.342Z,16.20
2023-01-30T06:41:08.234Z,15.85
2023-01-30T06:44:50.135Z,18.40
2023-01-30T06:48:32.135Z,17.38
2023-01-30T06:52:13.974Z,21.52
2023-01-30T06:55:59.795Z,18.63
2023-01-30T06:59:41.665Z,17.50
2023-01-30T07:03:23.633Z,17.63
2023-01-30T07:07:07.005Z,18.08
2023-01-30T07:10:49.129Z,16.17
2023-01-30T07:14:30.977Z,13.82
2023-01-30T07:18:13.356Z,17.88
2023-01-30T07:21:55.299Z,14.05
2023-01-30T07:25:37.194Z,15.13
2023-01-30T07:29:19.164Z,17.98
2023-01-30T07:33:01.271Z,15.90
2023-01-30T07:36:43.182Z,17.10
2023-01-30T07:40:25.443Z,13.73
2023-01-30T07:44:07.769Z,22.00
2023-01-30T07:47:49.642Z,21.88
2023-01-30T07:51:31.986Z,20.35
2023-01-30T07:55:13.905Z,17.60
2023-01-30T07:58:56.552Z,18.20
2023-01-30T08:02:38.616Z,16.80
2023-01-30T08:06:20.499Z,18.17
2023-01-30T08:10:02.401Z,20.52
2023-01-30T08:13:44.360Z,19.63
2023-01-30T08:17:26.334Z,14.70
2023-01-30T08:21:08.264Z,21.00
2023-01-30T08:24:50.180Z,22.42
2023-01-30T08:28:32.467Z,21.00
2023-01-30T08:32:15.641Z,18.75
2023-01-30T08:35:57.765Z,15.15
2023-01-30T08:39:39.598Z,20.48
2023-01-30T08:43:21.557Z,21.08
2023-01-30T08:47:03.512Z,16.70
2023-01-30T08:50:45.325Z,18.85
2023-01-30T08:54:27.227Z,20.30
2023-01-30T08:58:09.065Z,20.42
2023-01-30T09:01:50.916Z,16.48
2023-01-30T09:05:32.905Z,14.57
2023-01-30T09:09:14.729Z,20.92
2023-01-30T09:12:56.669Z,17.73
2023-01-30T09:16:38.607Z,19.25
2023-01-30T09:20:20.951Z,14.18
2023-01-30T09:24:02.998Z,17.67
2023-01-30T09:27:48.050Z,24.60
2023-01-30T09:31:30.215Z,21.05
2023-01-30T09:35:12.446Z,23.42
2023-01-30T09:38:54.434Z,22.83
2023-01-30T09:42:43.848Z,18.60
2023-01-30T09:46:25.660Z,16.10
2023-01-30T09:50:36.793Z,21.83
2023-01-30T09:54:25.329Z,19.48
2023-01-30T09:58:18.127Z,19.60
2023-01-30T10:02:47.036Z,27.60
2023-01-30T10:06:29.930Z,20.80
2023-01-30T10:10:22.249Z,17.65
2023-01-30T10:14:22.386Z,24.50
2023-01-30T10:18:20.398Z,21.67
2023-01-30T10:22:26.167Z,14.18
2023-01-30T10:26:13.363Z,17.60
2023-01-30T10:30:00.401Z,16.37
2023-01-30T10:33:50.540Z,16.77
2023-01-30T10:38:07.955Z,15.82
2023-01-30T10:41:58.787Z,19.73
2023-01-30T10:45:46.696Z,23.75
2023-01-30T10:49:41.920Z,19.67
2023-01-30T10:53:38.906Z,17.15
2023-01-30T10:57:43.421Z,20.50
2023-01-30T11:01:46.666Z,15.73
2023-01-30T11:05:39.659Z,19.55
2023-01-30T11:09:23.734Z,15.02
2023-01-30T11:13:19.707Z,18.75
2023-01-30T11:17:02.645Z,16.20
2023-01-30T11:20:51.552Z,20.33
2023-01-30T11:24:40.687Z,14.82
2023-01-30T11:28:23.440Z,16.75
2023-01-30T11:32:12.161Z,15.88
2023-01-30T11:36:15.894Z,14.75
2023-01-30T11:39:58.184Z,15.00
2023-01-30T11:43:40.285Z,16.05
2023-01-30T11:47:25.743Z,12.73
2023-01-30T11:51:09.877Z,9.45
2023-01-30T11:54:54.615Z,12.38
2023-01-30T11:58:39.837Z,25.00
2023-01-30T12:02:26.210Z,19.90
2023-01-30T12:06:08.143Z,15.07
2023-01-30T12:09:51.345Z,15.48
2023-01-30T12:13:41.867Z,12.15
2023-01-30T12:17:47.114Z,11.43
2023-01-30T12:21:38.722Z,17.30
2023-01-30T12:25:31.634Z,13.95
2023-01-30T12:29:29.903Z,14.38
2023-01-30T12:37:09.984Z,13.32
2023-01-30T12:41:22.208Z,25.52
2023-01-30T12:45:22.771Z,15.98
2023-01-30T12:49:14.742Z,13.23
2023-01-30T12:53:15.025Z,14.55
2023-01-30T12:57:26.683Z,14.07
2023-01-30T13:01:25.237Z,15.60
2023-01-30T13:05:23.529Z,21.02
2023-01-30T13:09:17.603Z,15.05
2023-01-30T13:12:59.387Z,17.20
2023-01-30T13:17:00.823Z,12.10
2023-01-30T13:21:00.604Z,16.95
2023-01-30T13:24:52.968Z,29.48
2023-01-30T13:28:41.475Z,16.05
2023-01-30T13:32:43.272Z,22.35
2023-01-30T13:36:33.083Z,11.07
2023-01-30T13:40:23.007Z,15.70
2023-01-30T13:44:32.742Z,22.88
2023-01-30T13:48:14.611Z,12.07
2023-01-30T13:56:03.064Z,19.08
2023-01-30T13:59:55.831Z,21.57
2023-01-30T14:03:38.036Z,13.45
2023-01-30T14:07:49.054Z,13.70
2023-01-30T14:11:58.062Z,18.55
2023-01-30T14:15:51.389Z,18.52
2023-01-30T14:19:50.248Z,14.05
2023-01-30T14:23:34.888Z,12.00
2023-01-30T14:27:27.441Z,21.20
2023-01-30T14:31:09.469Z,13.45
2023-01-30T14:35:20.051Z,14.63
2023-01-30T14:39:40.072Z,13.27
2023-01-30T14:43:36.733Z,14.63
2023-01-30T14:47:33.520Z,11.90
2023-01-30T14:51:48.345Z,13.40
2023-01-30T14:55:30.880Z,15.13
2023-01-30T14:59:33.145Z,18.55
2023-01-30T15:03:20.249Z,21.88
2023-01-30T15:07:10.382Z,15.60
2023-01-30T15:14:45.997Z,17.55
2023-01-30T15:18:51.464Z,19.20
2023-01-30T15:22:39.194Z,12.45
2023-01-30T15:26:58.594Z,18.73
2023-01-30T15:34:34.165Z,12.98
2023-01-30T15:38:34.783Z,12.40
2023-01-30T15:42:16.803Z,13.13
2023-01-30T15:46:23.162Z,26.15
2023-01-30T15:50:08.640Z,9.63
2023-01-30T15:53:50.956Z,12.43
2023-01-30T15:57:38.747Z,12.73
2023-01-30T16:01:22.784Z,27.50
2023-01-30T16:05:06.284Z,16.70
2023-01-30T16:09:01.399Z,17.08
2023-01-30T16:12:43.433Z,21.15
2023-01-30T16:16:26.064Z,12.40
2023-01-30T16:20:14.501Z,19.73
2023-01-30T16:24:25.089Z,14.52
2023-01-30T16:28:07.390Z,17.70
2023-01-30T16:31:51.493Z,17.00
2023-01-30T16:35:34.396Z,16.80
2023-01-30T16:39:37.047Z,13.15
2023-01-30T16:43:19.483Z,19.60
2023-01-30T16:47:06.052Z,14.80
2023-01-30T16:50:50.590Z,15.15
2023-01-30T16:54:35.082Z,13.52
2023-01-30T16:58:17.942Z,17.52
2023-01-30T17:02:02.221Z,17.10
2023-01-30T17:05:47.172Z,29.15
2023-01-30T17:09:41.731Z,20.95
2023-01-30T17:13:43.090Z,30.90
2023-01-30T17:17:24.992Z,16.23
2023-01-30T17:21:13.028Z,18.20
2023-01-30T17:28:41.811Z,19.23
2023-01-30T17:32:23.812Z,17.67
2023-01-30T17:36:15.144Z,16.35
2023-01-30T17:39:57.021Z,14.00
2023-01-30T17:43:38.921Z,15.57
2023-01-30T17:47:21.917Z,16.35
2023-01-30T17:51:03.982Z,15.32
2023-01-30T17:54:45.855Z,15.52
2023-01-30T17:58:27.794Z,17.17
2023-01-30T18:02:10.634Z,20.00
2023-01-30T18:05:52.547Z,19.98
2023-01-30T18:09:34.424Z,14.50
2023-01-30T18:13:16.240Z,14.38
2023-01-30T18:17:00.708Z,16.00
2023-01-30T18:20:42.621Z,20.55
2023-01-30T18:24:24.900Z,14.52
2023-01-30T18:28:10.343Z,19.60
2023-01-30T18:31:52.709Z,16.27
2023-01-30T18:35:34.627Z,19.60
2023-01-30T18:39:16.495Z,18.45
2023-01-30T18:43:01.026Z,14.98
2023-01-30T18:46:45.219Z,23.27
2023-01-30T18:50:27.204Z,19.08
2023-01-30T18:54:09.038Z,20.02
2023-01-30T18:57:51.443Z,13.68
2023-01-30T19:01:36.752Z,21.73
2023-01-30T19:05:18.670Z,18.20
2023-01-30T19:09:00.643Z,22.83
2023-01-30T19:13:01.666Z,20.13
2023-01-30T19:16:43.586Z,17.15
2023-01-30T19:20:26.305Z,23.50
2023-01-30T19:24:14.116Z,21.42
2023-01-30T19:27:56.866Z,28.75
2023-01-30T19:31:39.025Z,22.15
2023-01-30T19:35:21.300Z,28.45
2023-01-30T19:39:06.206Z,26.38
2023-01-30T19:42:48.445Z,33.67
2023-01-30T19:46:31.161Z,39.85
2023-01-30T19:50:13.459Z,38.35
2023-01-30T19:53:58.260Z,40.53
2023-01-30T19:57:40.136Z,50.00
2023-01-30T20:01:24.309Z,48.67
2023-01-30T20:05:06.754Z,35.17
2023-01-30T20:08:53.479Z,33.67
2023-01-30T20:12:35.791Z,35.00
2023-01-30T20:16:20.784Z,36.05
2023-01-30T20:20:03.132Z,31.70
2023-01-30T20:23:46.670Z,36.38
2023-01-30T20:27:28.619Z,37.75
2023-01-30T20:31:24.563Z,40.42
2023-01-30T20:35:07.012Z,50.55
2023-01-30T20:38:50.407Z,46.63
2023-01-30T20:42:32.208Z,27.27
2023-01-30T20:46:16.770Z,52.47
2023-01-30T20:49:58.639Z,23.20
2023-01-30T20:53:46.382Z,19.20
2023-01-30T20:57:28.173Z,30.92
2023-01-30T21:01:12.754Z,31.73
2023-01-30T21:04:54.676Z,23.35
2023-01-30T21:08:39.399Z,25.92
2023-01-30T21:12:23.844Z,23.42
2023-01-30T21:16:08.480Z,20.73
2023-01-30T21:19:50.348Z,34.85
2023-01-30T21:23:33.088Z,32.28
2023-01-30T21:27:14.991Z,42.78
2023-01-30T21:30:56.861Z,28.33
2023-01-30T21:34:39.166Z,26.90
2023-01-30T21:38:40.188Z,30.30
2023-01-30T21:42:40.845Z,29.83
2023-01-30T21:46:22.859Z,26.58
2023-01-30T21:50:05.133Z,24.23
2023-01-30T21:53:46.992Z,24.40
2023-01-30T21:57:28.832Z,32.22
2023-01-30T22:01:10.714Z,21.65
2023-01-30T22:04:52.607Z,23.40
2023-01-30T22:08:37.633Z,35.17
2023-01-30T22:12:19.434Z,30.65
2023-01-30T22:16:03.467Z,34.47
2023-01-30T22:19:45.455Z,25.00
2023-01-30T22:23:35.242Z,18.95
2023-01-30T22:27:17.163Z,17.95
2023-01-30T22:31:09.856Z,26.55
2023-01-30T22:34:51.875Z,21.88
2023-01-30T22:38:34.653Z,22.25
2023-01-30T22:42:16.738Z,29.75
2023-01-30T22:46:06.898Z,17.38
2023-01-30T22:49:49.226Z,37.55
2023-01-30T22:53:32.957Z,33.00
2023-01-30T22:57:14.922Z,28.65
2023-01-30T23:01:06.284Z,14.07
2023-01-30T23:04:50.586Z,19.15
2023-01-30T23:08:34.759Z,20.20
2023-01-30T23:12:35.662Z,22.23
2023-01-30T23:16:20.876Z,18.48
2023-01-30T23:20:03.094Z,19.80
2023-01-30T23:23:45.567Z,17.35
2023-01-30T23:27:27.413Z,23.17
2023-01-30T23:31:12.383Z,17.77
2023-01-30T23:34:54.663Z,13.10
2023-01-30T23:38:37.689Z,18.20
2023-01-30T23:42:19.865Z,17.75
2023-01-30T23:46:31.073Z,16.83
2023-01-30T23:50:12.930Z,15.90
2023-01-30T23:53:55.493Z,20.52
2023-01-30T23:57:37.536Z,15.68
